Time;durP1;ratioP1;P1;durP2;ratioP2;P2;SDS_P1;SDS_P2;PMS_P1;PMS_P2;Temp;Humidity;BMP_temperature;BMP_pressure;BME280_temperature;BME280_humidity;BME280_pressure;Samples;Min_cycle;Max_cycle;Signal;HPM_P1;HPM_P2
2024/04/19 00:00:51;;;;;;;;;;;;;;;2.82;100.00;96199.48;108219;1277;124956;-86
2024/04/19 00:03:38;;;;;;;;;;;;;;;2.81;100.00;96205.85;108358;1276;25403;-87
2024/04/19 00:06:04;;;;;;;;;;;;;;;2.77;100.00;96205.19;108327;1284;125273;-87
2024/04/19 00:08:30;;;;;;;;;;;;;;;2.75;100.00;96204.55;108360;1278;23888;-87
2024/04/19 00:10:57;;;;;;;;;;;;;;;2.76;100.00;96205.51;108344;1277;22567;-86
2024/04/19 00:13:25;;;;;;;;;;;;;;;2.74;100.00;96198.48;108233;1281;124976;-87
2024/04/19 00:15:51;;;;;;;;;;;;;;;2.70;100.00;96195.33;108420;1277;22554;-87
2024/04/19 00:18:17;;;;;;;;;;;;;;;2.69;100.00;96196.80;108265;1285;125394;-87
2024/04/19 00:20:44;;;;;;;;;;;;;;;2.70;100.00;96196.41;108403;1277;22556;-87
2024/04/19 00:23:10;;;;;;;;;;;;;;;2.71;100.00;96196.63;108322;1280;22477;-87
2024/04/19 00:25:36;;;;;;;;;;;;;;;2.70;100.00;96192.25;108246;1281;124996;-87
2024/04/19 00:28:03;;;;;;;;;;;;;;;2.67;100.00;96192.20;108372;1284;22520;-87
2024/04/19 00:30:29;;;;;;;;;;;;;;;2.67;100.00;96193.59;108339;1273;125218;-87
2024/04/19 00:32:55;;;;;;;;;;;;;;;2.66;100.00;96193.84;108360;1277;23759;-87
2024/04/19 00:35:22;;;;;;;;;;;;;;;2.66;100.00;96194.67;108436;1277;22652;-87
2024/04/19 00:37:48;;;;;;;;;;;;;;;2.66;100.00;96192.48;108249;1280;124988;-87
2024/04/19 00:40:14;;;;;;;;;;;;;;;2.66;100.00;96191.45;108337;1283;22524;-87
2024/04/19 00:42:40;;;;;;;;;;;;;;;2.67;100.00;96190.38;108304;1285;125129;-87
2024/04/19 00:45:08;;;;;;;;;;;;;;;2.69;100.00;96189.48;108297;1285;22532;-87
2024/04/19 00:47:35;;;;;;;;;;;;;;;2.68;100.00;96186.46;108371;1285;22557;-87
2024/04/19 00:50:01;;;;;;;;;;;;;;;2.69;100.00;96185.34;108243;1280;124793;-87
2024/04/19 00:52:27;;;;;;;;;;;;;;;2.70;100.00;96180.45;108406;1284;22553;-87
2024/04/19 00:54:54;;;;;;;;;;;;;;;2.69;100.00;96181.64;108231;1279;125269;-87
2024/04/19 00:57:20;;;;;;;;;;;;;;;2.65;100.00;96183.71;108408;1285;22613;-87
2024/04/19 00:59:47;;;;;;;;;;;;;;;2.62;100.00;96183.42;108272;1285;125280;-87
2024/04/19 01:02:14;;;;;;;;;;;;;;;2.63;100.00;96183.06;108276;1285;22512;-87
2024/04/19 01:04:40;;;;;;;;;;;;;;;2.63;100.00;96181.15;108329;1280;22547;-87
2024/04/19 01:07:06;;;;;;;;;;;;;;;2.64;100.00;96179.18;108189;1284;125107;-87
2024/04/19 01:09:33;;;;;;;;;;;;;;;2.64;100.00;96178.19;108332;1279;22518;-87
2024/04/19 01:11:59;;;;;;;;;;;;;;;2.63;100.00;96174.78;108214;1280;125177;-87
2024/04/19 01:14:25;;;;;;;;;;;;;;;2.61;100.00;96176.20;108332;1277;22503;-87
2024/04/19 01:16:51;;;;;;;;;;;;;;;2.56;100.00;96175.32;108266;1284;22568;-87
2024/04/19 01:19:18;;;;;;;;;;;;;;;2.51;100.00;96174.48;108257;1284;124999;-87
2024/04/19 01:21:44;;;;;;;;;;;;;;;2.52;100.00;96176.13;108406;1283;25255;-87
2024/04/19 01:24:21;;;;;;;;;;;;;;;2.52;100.00;96178.34;108182;1283;125441;-87
2024/04/19 01:26:47;;;;;;;;;;;;;;;2.45;100.00;96175.58;108274;1285;22594;-87
2024/04/19 01:29:13;;;;;;;;;;;;;;;2.43;100.00;96171.81;108363;1280;25400;-87
2024/04/19 01:31:41;;;;;;;;;;;;;;;2.39;100.00;96170.93;108256;1280;124967;-87
2024/04/19 01:34:07;;;;;;;;;;;;;;;2.40;100.00;96172.09;108284;1285;22503;-87
2024/04/19 01:36:34;;;;;;;;;;;;;;;2.41;100.00;96167.66;108322;1278;125006;-87
2024/04/19 01:39:00;;;;;;;;;;;;;;;2.43;100.00;96167.41;108424;1283;22549;-87
2024/04/19 01:41:26;;;;;;;;;;;;;;;2.43;100.00;96161.52;108389;1278;22651;-87
2024/04/19 01:43:53;;;;;;;;;;;;;;;2.39;100.00;96159.67;108182;1284;125162;-86
2024/04/19 01:46:19;;;;;;;;;;;;;;;2.37;100.00;96164.48;108439;1277;22495;-86
2024/04/19 01:48:45;;;;;;;;;;;;;;;2.38;100.00;96172.27;108266;1284;125189;-87
2024/04/19 01:51:11;;;;;;;;;;;;;;;2.35;100.00;96172.13;108308;1284;22505;-86
2024/04/19 01:53:38;;;;;;;;;;;;;;;2.31;100.00;96175.27;108215;1280;125214;-86
2024/04/19 01:56:04;;;;;;;;;;;;;;;2.30;100.00;96178.75;108335;1283;22534;-87
2024/04/19 01:58:31;;;;;;;;;;;;;;;2.31;100.00;96177.19;108344;1283;22599;-87
2024/04/19 02:00:58;;;;;;;;;;;;;;;2.31;100.00;96178.48;108316;1283;125008;-86
2024/04/19 02:03:24;;;;;;;;;;;;;;;2.32;100.00;96180.29;108315;1271;22897;-87
2024/04/19 02:05:50;;;;;;;;;;;;;;;2.35;100.00;96179.69;108273;1282;126577;-86
2024/04/19 02:08:16;;;;;;;;;;;;;;;2.38;100.00;96179.23;108523;1277;22496;-86
2024/04/19 02:10:43;;;;;;;;;;;;;;;2.39;100.00;96177.79;108312;1273;22523;-87
2024/04/19 02:13:09;;;;;;;;;;;;;;;2.42;100.00;96179.27;108246;1283;124980;-87
2024/04/19 02:15:35;;;;;;;;;;;;;;;2.44;100.00;96180.46;108443;1276;22543;-87
2024/04/19 02:18:01;;;;;;;;;;;;;;;2.45;100.00;96177.51;108307;1281;125335;-86
2024/04/19 02:20:27;;;;;;;;;;;;;;;2.45;100.00;96173.21;108343;1283;22516;-87
2024/04/19 02:22:54;;;;;;;;;;;;;;;2.44;100.00;96175.53;108387;1283;22523;-86
2024/04/19 02:25:20;;;;;;;;;;;;;;;2.45;100.00;96174.42;108364;1276;124939;-86
2024/04/19 02:33:16;;;;;;;;;;;;;;;2.47;100.00;96174.59;108444;1283;23379;-86
2024/04/19 02:35:43;;;;;;;;;;;;;;;2.47;100.00;96172.21;108394;1284;125276;-87
2024/04/19 02:38:09;;;;;;;;;;;;;;;2.46;100.00;96170.19;108397;1277;22511;-86
2024/04/19 02:40:35;;;;;;;;;;;;;;;2.46;100.00;96169.67;108386;1280;22706;-86
2024/04/19 02:43:01;;;;;;;;;;;;;;;2.48;100.00;96168.80;108286;1284;124941;-87
2024/04/19 02:45:28;;;;;;;;;;;;;;;2.49;100.00;96166.16;108337;1284;25779;-86
2024/04/19 02:47:54;;;;;;;;;;;;;;;2.49;100.00;96163.08;108258;1284;125086;-86
2024/04/19 02:50:20;;;;;;;;;;;;;;;2.49;100.00;96161.38;108351;1281;22511;-87
2024/04/19 02:52:47;;;;;;;;;;;;;;;2.50;100.00;96157.70;108325;1279;22668;-86
2024/04/19 02:55:13;;;;;;;;;;;;;;;2.52;100.00;96156.48;108306;1277;124937;-87
2024/04/19 02:57:39;;;;;;;;;;;;;;;2.54;100.00;96154.64;108403;1277;22499;-87
2024/04/19 03:00:06;;;;;;;;;;;;;;;2.54;100.00;96155.96;108232;1280;125132;-86
2024/04/19 03:02:32;;;;;;;;;;;;;;;2.57;100.00;96154.13;108401;1283;22484;-86
2024/04/19 03:04:59;;;;;;;;;;;;;;;2.61;100.00;96150.40;108350;1281;22516;-87
2024/04/19 03:07:25;;;;;;;;;;;;;;;2.63;100.00;96147.59;108277;1285;124970;-87
2024/04/19 03:09:51;;;;;;;;;;;;;;;2.63;100.00;96144.86;108367;1285;25220;-87
2024/04/19 03:12:18;;;;;;;;;;;;;;;2.62;100.00;96142.57;108247;1280;125189;-86
2024/04/19 03:14:47;;;;;;;;;;;;;;;2.63;100.00;96145.27;108408;1277;22544;-87
2024/04/19 03:17:13;;;;;;;;;;;;;;;2.65;100.00;96142.64;108340;1285;22556;-86
2024/04/19 03:19:39;;;;;;;;;;;;;;;2.65;100.00;96139.37;108351;1277;125166;-87
2024/04/19 03:22:06;;;;;;;;;;;;;;;2.66;100.00;96135.34;108373;1277;22503;-87
2024/04/19 03:24:34;;;;;;;;;;;;;;;2.67;100.00;96132.86;108256;1284;125032;-87
2024/04/19 03:27:01;;;;;;;;;;;;;;;2.66;100.00;96128.35;108237;1279;22506;-87
2024/04/19 03:29:27;;;;;;;;;;;;;;;2.67;100.00;96129.62;108419;1283;24240;-86
2024/04/19 03:31:54;;;;;;;;;;;;;;;2.65;100.00;96128.09;108283;1283;124874;-85
2024/04/19 03:34:20;;;;;;;;;;;;;;;2.64;100.00;96131.27;108289;1284;22544;-86
2024/04/19 03:36:50;;;;;;;;;;;;;;;2.63;100.00;96126.73;108208;1284;125515;-86
2024/04/19 03:39:16;;;;;;;;;;;;;;;2.63;100.00;96130.31;108378;1284;22558;-87
2024/04/19 03:41:43;;;;;;;;;;;;;;;2.64;100.00;96128.52;108304;1284;125137;-86
2024/04/19 03:46:55;;;;;;;;;;;;;;;2.64;100.00;96125.83;108352;1277;22537;-86
2024/04/19 03:49:21;;;;;;;;;;;;;;;2.67;100.00;96126.86;108238;1281;125097;-86
2024/04/19 03:51:48;;;;;;;;;;;;;;;2.69;100.00;96125.34;108364;1285;22561;-87
2024/04/19 03:54:14;;;;;;;;;;;;;;;2.69;100.00;96124.13;108253;1284;125170;-87
2024/04/19 03:56:41;;;;;;;;;;;;;;;2.69;100.00;96124.48;108373;1277;23901;-86
2024/04/19 03:59:07;;;;;;;;;;;;;;;2.70;100.00;96121.13;108350;1285;22702;-86
2024/04/19 04:01:34;;;;;;;;;;;;;;;2.71;100.00;96117.83;108223;1285;125088;-86
2024/04/19 04:04:00;;;;;;;;;;;;;;;2.73;100.00;96115.25;108434;1285;25388;-87
2024/04/19 04:06:26;;;;;;;;;;;;;;;2.74;100.00;96113.98;108199;1278;125157;-86
2024/04/19 04:08:53;;;;;;;;;;;;;;;2.75;100.00;96113.52;108378;1283;22571;-87
2024/04/19 04:11:21;;;;;;;;;;;;;;;2.77;100.00;96109.44;108418;1285;22505;-87
2024/04/19 04:13:47;;;;;;;;;;;;;;;2.75;100.00;96110.77;108252;1280;125073;-87
2024/04/19 04:16:13;;;;;;;;;;;;;;;2.74;100.00;96115.19;108380;1277;22502;-86
2024/04/19 04:18:40;;;;;;;;;;;;;;;2.73;100.00;96116.25;108303;1284;125008;-86
2024/04/19 04:21:06;;;;;;;;;;;;;;;2.71;100.00;96113.67;108428;1277;22534;-87
2024/04/19 04:23:32;;;;;;;;;;;;;;;2.72;100.00;96115.11;108384;1285;25261;-87
2024/04/19 04:25:59;;;;;;;;;;;;;;;2.72;100.00;96112.94;108252;1284;124763;-86
2024/04/19 04:28:25;;;;;;;;;;;;;;;2.71;100.00;96109.23;108358;1280;22492;-86
2024/04/19 04:30:51;;;;;;;;;;;;;;;2.73;100.00;96113.06;108263;1279;125000;-86
2024/04/19 04:33:18;;;;;;;;;;;;;;;2.74;100.00;96115.33;108426;1278;22510;-87
2024/04/19 04:35:44;;;;;;;;;;;;;;;2.74;100.00;96111.73;108235;1283;125187;-86
2024/04/19 04:38:10;;;;;;;;;;;;;;;2.74;100.00;96115.63;108390;1284;22551;-87
2024/04/19 04:40:37;;;;;;;;;;;;;;;2.74;100.00;96112.58;108418;1278;22529;-87
2024/04/19 04:43:03;;;;;;;;;;;;;;;2.72;100.00;96109.48;108255;1277;125032;-86
2024/04/19 04:45:30;;;;;;;;;;;;;;;2.71;100.00;96114.77;108387;1277;24294;-86
2024/04/19 04:47:56;;;;;;;;;;;;;;;2.72;100.00;96112.96;108329;1277;125144;-87
2024/04/19 04:50:23;;;;;;;;;;;;;;;2.72;100.00;96111.72;108316;1278;24244;-87
2024/04/19 04:52:50;;;;;;;;;;;;;;;2.71;100.00;96115.04;108376;1283;24196;-86
2024/04/19 04:55:17;;;;;;;;;;;;;;;2.72;100.00;96113.09;108314;1277;124947;-87
2024/04/19 04:57:43;;;;;;;;;;;;;;;2.75;100.00;96109.90;108345;1284;23279;-87
2024/04/19 05:00:09;;;;;;;;;;;;;;;2.78;100.00;96110.05;108286;1284;125253;-87
2024/04/19 05:02:36;;;;;;;;;;;;;;;2.78;100.00;96108.10;108398;1277;22489;-87
2024/04/19 05:05:02;;;;;;;;;;;;;;;2.80;100.00;96107.27;108346;1284;24821;-87
2024/04/19 05:07:29;;;;;;;;;;;;;;;2.80;99.98;96104.34;108361;1284;125018;-87
2024/04/19 05:09:55;;;;;;;;;;;;;;;2.80;99.93;96100.42;108324;1270;22517;-87
2024/04/19 05:12:22;;;;;;;;;;;;;;;2.80;99.79;96100.90;108284;1277;124991;-86
2024/04/19 05:14:48;;;;;;;;;;;;;;;2.81;99.82;96100.82;108318;1278;22515;-87
2024/04/19 05:17:14;;;;;;;;;;;;;;;2.84;99.87;96098.64;108403;1281;25217;-87
2024/04/19 05:19:41;;;;;;;;;;;;;;;2.85;99.77;96099.39;108246;1284;124749;-87
2024/04/19 05:22:07;;;;;;;;;;;;;;;2.86;99.58;96097.09;108376;1278;22548;-87
2024/04/19 05:24:33;;;;;;;;;;;;;;;2.87;99.97;96094.98;108266;1280;125093;-86
2024/04/19 05:27:00;;;;;;;;;;;;;;;2.89;99.82;96092.40;108404;1282;22532;-86
2024/04/19 05:29:26;;;;;;;;;;;;;;;2.92;99.67;96096.41;108342;1280;22519;-87
2024/04/19 05:31:52;;;;;;;;;;;;;;;2.94;99.47;96097.69;108311;1284;124603;-87
2024/04/19 05:34:19;;;;;;;;;;;;;;;2.98;98.81;96094.59;108406;1278;22542;-87
2024/04/19 05:36:45;;;;;;;;;;;;;;;3.02;99.09;96092.02;108279;1276;124932;-87
2024/04/19 05:39:11;;;;;;;;;;;;;;;3.05;98.69;96091.38;108411;1277;22495;-86
2024/04/19 05:41:38;;;;;;;;;;;;;;;3.08;98.27;96090.92;108276;1284;124983;-87
2024/04/19 05:44:05;;;;;;;;;;;;;;;3.13;97.96;96095.31;108417;1284;22574;-86
2024/04/19 05:46:31;;;;;;;;;;;;;;;3.16;97.96;96090.23;108332;1284;22513;-86
2024/04/19 05:48:58;;;;;;;;;;;;;;;3.20;98.23;96088.19;108250;1277;124946;-87
2024/04/19 05:51:24;;;;;;;;;;;;;;;3.23;97.59;96090.44;108437;1277;22539;-87
2024/04/19 05:53:50;;;;;;;;;;;;;;;3.27;97.43;96093.27;108289;1283;124920;-86
2024/04/19 05:56:16;;;;;;;;;;;;;;;3.32;97.35;96091.13;108381;1284;22782;-86
2024/04/19 05:58:44;;;;;;;;;;;;;;;3.37;96.75;96089.58;108406;1284;22802;-87
2024/04/19 06:01:11;;;;;;;;;;;;;;;3.43;96.87;96088.52;108467;1285;124892;-86
2024/04/19 06:03:38;;;;;;;;;;;;;;;3.49;96.83;96087.59;108385;1283;22507;-86
2024/04/19 06:06:04;;;;;;;;;;;;;;;3.55;96.52;96079.32;108242;1285;124967;-87
2024/04/19 06:08:30;;;;;;;;;;;;;;;3.61;96.37;96080.14;108424;1280;22558;-86
2024/04/19 06:10:56;;;;;;;;;;;;;;;3.66;95.85;96080.73;108338;1280;22490;-87
2024/04/19 06:13:23;;;;;;;;;;;;;;;3.71;95.47;96082.30;108295;1278;124981;-86
2024/04/19 06:15:51;;;;;;;;;;;;;;;3.77;95.28;96080.13;108284;1283;23564;-87
2024/04/19 06:18:17;;;;;;;;;;;;;;;3.83;94.39;96076.83;108279;1285;124995;-86
2024/04/19 06:20:43;;;;;;;;;;;;;;;3.90;94.22;96076.54;108275;1283;22586;-86
2024/04/19 06:23:09;;;;;;;;;;;;;;;3.95;94.24;96074.66;108459;1278;22499;-86
2024/04/19 06:25:36;;;;;;;;;;;;;;;3.99;94.23;96071.98;108332;1284;124768;-86
2024/04/19 06:28:02;;;;;;;;;;;;;;;4.04;94.12;96074.23;108333;1284;22500;-86
2024/04/19 06:30:28;;;;;;;;;;;;;;;4.12;93.78;96073.73;108135;1280;124862;-86
2024/04/19 06:32:55;;;;;;;;;;;;;;;4.20;93.40;96072.49;108316;1285;23967;-86
2024/04/19 06:35:21;;;;;;;;;;;;;;;4.29;91.00;96066.04;108342;1280;23359;-86
2024/04/19 06:37:48;;;;;;;;;;;;;;;4.34;90.77;96062.73;108298;1280;125112;-86
2024/04/19 06:40:14;;;;;;;;;;;;;;;4.39;89.91;96065.08;108358;1285;22509;-87
2024/04/19 06:42:41;;;;;;;;;;;;;;;4.42;89.25;96063.18;108350;1277;124903;-86
2024/04/19 06:45:07;;;;;;;;;;;;;;;4.47;89.47;96062.46;108389;1284;22910;-86
2024/04/19 06:47:33;;;;;;;;;;;;;;;4.53;88.54;96064.77;108397;1281;25210;-86
2024/04/19 06:50:00;;;;;;;;;;;;;;;4.58;87.56;96064.88;108196;1281;124591;-86
2024/04/19 06:52:26;;;;;;;;;;;;;;;4.59;87.69;96058.40;108376;1278;22497;-86
2024/04/19 06:54:52;;;;;;;;;;;;;;;4.61;87.26;96056.50;108183;1280;124855;-86
2024/04/19 06:57:19;;;;;;;;;;;;;;;4.65;87.54;96053.98;108369;1278;22558;-87
2024/04/19 06:59:45;;;;;;;;;;;;;;;4.70;87.74;96053.65;108336;1277;125629;-86
2024/04/19 07:02:13;;;;;;;;;;;;;;;4.76;87.38;96047.38;108317;1284;25270;-86
2024/04/19 07:04:39;;;;;;;;;;;;;;;4.81;86.17;96041.70;108416;1284;25389;-86
2024/04/19 07:07:06;;;;;;;;;;;;;;;4.89;85.60;96042.89;108261;1277;124753;-87
2024/04/19 07:09:33;;;;;;;;;;;;;;;4.95;86.61;96039.67;108401;1277;22535;-86
2024/04/19 07:11:59;;;;;;;;;;;;;;;5.02;85.38;96034.65;108282;1284;124947;-86
2024/04/19 07:14:25;;;;;;;;;;;;;;;5.11;84.75;96030.88;108386;1284;23585;-87
2024/04/19 07:16:51;;;;;;;;;;;;;;;5.18;84.67;96036.65;108403;1284;24157;-86
2024/04/19 07:19:18;;;;;;;;;;;;;;;5.22;83.32;96035.08;108307;1281;124813;-87
2024/04/19 07:21:44;;;;;;;;;;;;;;;5.25;84.07;96034.27;108317;1284;22509;-87
2024/04/19 07:24:10;;;;;;;;;;;;;;;5.30;82.96;96037.69;108290;1278;125485;-86
2024/04/19 07:26:38;;;;;;;;;;;;;;;5.34;83.11;96031.71;108402;1283;22510;-87
2024/04/19 07:29:05;;;;;;;;;;;;;;;5.42;83.30;96036.21;108307;1278;22599;-86
2024/04/19 07:31:31;;;;;;;;;;;;;;;5.50;82.59;96031.80;108287;1284;124835;-87
2024/04/19 07:33:57;;;;;;;;;;;;;;;5.58;83.96;96032.56;108361;1284;25278;-87
2024/04/19 07:36:24;;;;;;;;;;;;;;;5.63;82.35;96036.10;108277;1280;125021;-87
2024/04/19 07:38:51;;;;;;;;;;;;;;;5.65;81.58;96036.05;108369;1281;22508;-87
2024/04/19 07:41:18;;;;;;;;;;;;;;;5.70;81.73;96032.96;108322;1281;22513;-87
2024/04/19 07:43:45;;;;;;;;;;;;;;;5.72;82.03;96029.31;108267;1277;124812;-87
2024/04/19 07:46:11;;;;;;;;;;;;;;;5.74;80.83;96030.78;108217;1280;25024;-86
2024/04/19 07:48:37;;;;;;;;;;;;;;;5.76;80.89;96036.29;108343;1284;124808;-87
2024/04/19 07:51:04;;;;;;;;;;;;;;;5.76;80.58;96037.00;108395;1284;22641;-87
2024/04/19 07:53:30;;;;;;;;;;;;;;;5.77;81.00;96029.75;108398;1281;22505;-87
2024/04/19 07:55:57;;;;;;;;;;;;;;;5.80;81.41;96026.91;108306;1278;124861;-87
2024/04/19 07:58:25;;;;;;;;;;;;;;;5.89;82.22;96027.77;108385;1283;22555;-87
2024/04/19 08:00:53;;;;;;;;;;;;;;;6.01;81.95;96029.52;108354;1277;125037;-87
2024/04/19 08:03:20;;;;;;;;;;;;;;;6.06;79.62;96022.77;108358;1278;22536;-87
2024/04/19 08:05:46;;;;;;;;;;;;;;;6.07;80.76;96016.05;108306;1284;124986;-87
2024/04/19 08:08:12;;;;;;;;;;;;;;;6.11;81.55;96014.79;108407;1284;23788;-87
2024/04/19 08:10:38;;;;;;;;;;;;;;;6.13;81.16;96015.81;108419;1276;22610;-87
2024/04/19 08:13:07;;;;;;;;;;;;;;;6.09;78.22;96016.14;108289;1277;124924;-87
2024/04/19 08:15:34;;;;;;;;;;;;;;;6.06;79.38;96007.22;108370;1284;22571;-87
2024/04/19 08:18:01;;;;;;;;;;;;;;;6.08;77.57;96007.51;108263;1284;124874;-87
2024/04/19 08:20:27;;;;;;;;;;;;;;;6.05;74.74;96004.95;108393;1284;22524;-87
2024/04/19 08:22:53;;;;;;;;;;;;;;;5.99;75.98;95999.02;108418;1277;25398;-87
2024/04/19 08:25:19;;;;;;;;;;;;;;;5.93;76.09;95996.84;108333;1281;124121;-87
2024/04/19 08:27:46;;;;;;;;;;;;;;;5.92;75.22;95992.20;108408;1284;22532;-87
2024/04/19 08:30:13;;;;;;;;;;;;;;;5.95;76.72;95990.96;108305;1285;124229;-86
2024/04/19 08:32:40;;;;;;;;;;;;;;;6.05;77.27;95982.62;108373;1284;22819;-87
2024/04/19 08:35:06;;;;;;;;;;;;;;;6.16;77.28;95979.14;108346;1284;22511;-88
2024/04/19 08:37:32;;;;;;;;;;;;;;;6.27;77.28;95975.19;108247;1285;124056;-87
2024/04/19 08:39:59;;;;;;;;;;;;;;;6.46;77.48;95966.66;108291;1284;22541;-86
2024/04/19 08:42:25;;;;;;;;;;;;;;;6.64;76.89;95973.44;108253;1285;124241;-87
2024/04/19 08:44:52;;;;;;;;;;;;;;;6.74;75.24;95969.31;108262;1285;22541;-87
2024/04/19 08:47:18;;;;;;;;;;;;;;;6.78;75.13;95971.34;108368;1281;22535;-87
2024/04/19 08:49:44;;;;;;;;;;;;;;;6.84;74.73;95964.30;108306;1281;124236;-87
2024/04/19 08:52:11;;;;;;;;;;;;;;;6.87;75.37;95968.20;108433;1284;22509;-87
2024/04/19 08:54:37;;;;;;;;;;;;;;;6.84;74.61;95970.30;108207;1283;124138;-87
2024/04/19 08:57:04;;;;;;;;;;;;;;;6.80;74.74;95968.73;108303;1285;25400;-87
2024/04/19 08:59:31;;;;;;;;;;;;;;;6.75;73.75;95970.53;108422;1284;22537;-87
2024/04/19 09:01:57;;;;;;;;;;;;;;;6.71;73.35;95972.45;108406;1283;123918;-87
2024/04/19 09:04:23;;;;;;;;;;;;;;;6.70;74.16;95970.48;108265;1285;22544;-88
2024/04/19 09:06:50;;;;;;;;;;;;;;;6.70;74.59;95967.81;108213;1285;124194;-87
2024/04/19 09:09:16;;;;;;;;;;;;;;;6.69;73.56;95969.27;108430;1285;22902;-87
2024/04/19 09:11:45;;;;;;;;;;;;;;;6.72;75.18;95964.29;108223;1285;124398;-87
2024/04/19 09:14:12;;;;;;;;;;;;;;;6.79;75.86;95960.91;108373;1280;22526;-87
2024/04/19 09:16:38;;;;;;;;;;;;;;;6.85;76.17;95960.45;108275;1281;22517;-87
2024/04/19 09:19:07;;;;;;;;;;;;;;;6.88;75.63;95955.95;108300;1281;124148;-87
2024/04/19 09:21:34;;;;;;;;;;;;;;;6.93;75.48;95965.73;108388;1284;22962;-87
2024/04/19 09:24:00;;;;;;;;;;;;;;;6.97;74.41;95962.06;108182;1284;124321;-87
2024/04/19 09:26:26;;;;;;;;;;;;;;;7.00;74.42;95957.73;108395;1279;22629;-87
2024/04/19 09:28:53;;;;;;;;;;;;;;;7.02;75.56;95955.82;108393;1283;22554;-87
2024/04/19 09:31:19;;;;;;;;;;;;;;;7.03;75.83;95949.87;108334;1285;124260;-90
2024/04/19 09:33:45;;;;;;;;;;;;;;;6.98;77.53;95950.36;108329;1285;22526;-90
2024/04/19 09:36:16;;;;;;;;;;;;;;;6.98;77.19;95943.33;108354;1283;124400;-90
2024/04/19 09:38:42;;;;;;;;;;;;;;;7.01;78.47;95939.96;108367;1284;22505;-89
2024/04/19 09:41:09;;;;;;;;;;;;;;;7.02;77.12;95929.83;108439;1285;22514;-90
2024/04/19 09:43:36;;;;;;;;;;;;;;;6.97;76.06;95928.30;108373;1285;125286;-90
2024/04/19 09:46:03;;;;;;;;;;;;;;;6.91;76.61;95931.14;108425;1283;22518;-90
2024/04/19 09:48:31;;;;;;;;;;;;;;;6.89;76.13;95926.23;108310;1285;124717;-89
2024/04/19 09:50:57;;;;;;;;;;;;;;;6.91;77.34;95922.45;108399;1283;23215;-90
2024/04/19 09:53:30;;;;;;;;;;;;;;;7.02;78.01;95923.55;108428;1284;22551;-90
2024/04/19 09:56:15;;;;;;;;;;;;;;;7.07;77.05;95917.00;108367;1285;124617;-90
2024/04/19 09:58:42;;;;;;;;;;;;;;;7.08;76.95;95908.80;108479;1277;22527;-90
2024/04/19 10:01:09;;;;;;;;;;;;;;;7.16;76.99;95902.41;108246;1283;125532;-91
2024/04/19 10:03:35;;;;;;;;;;;;;;;7.24;77.28;95899.45;108403;1284;23802;-91
2024/04/19 10:06:05;;;;;;;;;;;;;;;7.39;78.10;95886.58;108232;1284;125145;-90
2024/04/19 10:08:31;;;;;;;;;;;;;;;7.53;76.33;95885.79;108469;1284;25383;-90
2024/04/19 10:10:58;;;;;;;;;;;;;;;7.57;76.13;95887.35;108460;1277;24239;-90
2024/04/19 10:13:30;;;;;;;;;;;;;;;7.58;76.39;95879.69;108560;1267;124972;-90
2024/04/19 10:15:56;;;;;;;;;;;;;;;7.67;75.35;95872.31;108398;1278;22529;-90
2024/04/19 10:18:23;;;;;;;;;;;;;;;7.77;75.05;95863.31;108375;1280;124816;-91
2024/04/19 10:20:50;;;;;;;;;;;;;;;7.85;73.86;95867.78;108354;1277;181999;-90
2024/04/19 10:23:16;;;;;;;;;;;;;;;7.92;72.99;95859.88;108476;1283;22577;-90
2024/04/19 10:25:44;;;;;;;;;;;;;;;8.05;74.75;95854.20;108438;1275;124234;-90
2024/04/19 10:28:11;;;;;;;;;;;;;;;8.21;73.90;95849.30;108488;1283;22543;-90
2024/04/19 10:30:40;;;;;;;;;;;;;;;8.33;71.28;95840.65;108451;1283;124048;-90
2024/04/19 10:33:08;;;;;;;;;;;;;;;8.36;71.35;95837.55;108526;1276;22513;-90
2024/04/19 10:35:35;;;;;;;;;;;;;;;8.33;71.46;95836.54;108501;1284;22527;-90
2024/04/19 10:38:02;;;;;;;;;;;;;;;8.38;73.75;95825.14;108498;1280;22588;-90
2024/04/19 10:40:28;;;;;;;;;;;;;;;8.56;71.33;95823.91;108535;1283;22617;-90
2024/04/19 10:43:02;;;;;;;;;;;;;;;8.71;70.85;95825.20;108369;1279;124218;-90
2024/04/19 10:45:31;;;;;;;;;;;;;;;8.78;69.62;95817.92;108511;1283;23243;-90
2024/04/19 10:47:58;;;;;;;;;;;;;;;8.68;68.51;95812.78;108347;1277;124408;-90
2024/04/19 10:50:28;;;;;;;;;;;;;;;8.58;69.77;95810.75;108523;1281;24806;-90
2024/04/19 10:52:55;;;;;;;;;;;;;;;8.48;68.37;95809.85;108505;1276;22539;-90
2024/04/19 10:55:23;;;;;;;;;;;;;;;8.37;68.44;95799.84;108432;1280;124055;-90
2024/04/19 10:57:49;;;;;;;;;;;;;;;8.37;69.45;95798.70;108495;1278;24198;-91
2024/04/19 11:00:15;;;;;;;;;;;;;;;8.43;69.79;95794.37;108455;1276;124181;-89
2024/04/19 11:02:42;;;;;;;;;;;;;;;8.47;68.03;95797.48;108551;1276;22621;-90
2024/04/19 11:05:09;;;;;;;;;;;;;;;8.57;68.21;95795.35;108518;1283;24899;-90
2024/04/19 11:07:35;;;;;;;;;;;;;;;8.63;64.57;95793.58;108365;1283;124283;-91
2024/04/19 11:10:03;;;;;;;;;;;;;;;8.63;66.49;95784.61;108450;1284;23376;-90
2024/04/19 11:12:30;;;;;;;;;;;;;;;8.64;65.92;95782.02;108383;1278;125294;-90
2024/04/19 11:15:00;;;;;;;;;;;;;;;8.65;66.72;95782.42;108625;1281;22550;-91
2024/04/19 11:17:27;;;;;;;;;;;;;;;8.65;64.79;95777.25;108459;1283;22528;-90
2024/04/19 11:19:53;;;;;;;;;;;;;;;8.63;65.46;95768.02;108378;1277;124589;-89
2024/04/19 11:22:19;;;;;;;;;;;;;;;8.64;67.05;95761.83;108622;1280;22515;-90
2024/04/19 11:24:45;;;;;;;;;;;;;;;8.76;68.64;95753.12;108384;1280;124168;-90
2024/04/19 11:27:12;;;;;;;;;;;;;;;8.91;69.21;95753.60;108657;1277;22545;-90
2024/04/19 11:29:38;;;;;;;;;;;;;;;8.97;68.50;95749.05;108369;1281;124708;-90
2024/04/19 11:32:07;;;;;;;;;;;;;;;9.02;66.77;95751.12;108642;1273;22543;-90
2024/04/19 11:34:34;;;;;;;;;;;;;;;9.06;68.10;95752.80;108446;1282;22515;-90
2024/04/19 11:37:02;;;;;;;;;;;;;;;9.13;66.62;95750.36;108415;1278;124283;-90
2024/04/19 11:39:31;;;;;;;;;;;;;;;9.20;65.43;95749.82;108604;1279;22553;-90
2024/04/19 11:41:58;;;;;;;;;;;;;;;9.25;66.07;95743.46;108400;1283;124239;-90
2024/04/19 11:44:24;;;;;;;;;;;;;;;9.28;65.91;95737.23;108473;1282;22496;-90
2024/04/19 11:46:50;;;;;;;;;;;;;;;9.27;65.89;95730.67;108607;1279;22516;-90
2024/04/19 11:49:17;;;;;;;;;;;;;;;9.21;64.91;95736.93;108352;1283;124048;-90
2024/04/19 11:51:47;;;;;;;;;;;;;;;9.17;65.17;95735.07;108455;1282;22595;-90
2024/04/19 11:54:14;;;;;;;;;;;;;;;9.14;64.41;95732.83;108360;1282;124334;-90
2024/04/19 11:56:40;;;;;;;;;;;;;;;9.11;65.26;95732.09;108556;1282;22514;-91
2024/04/19 11:59:07;;;;;;;;;;;;;;;9.15;64.61;95724.94;108429;1280;22528;-90
2024/04/19 12:01:33;;;;;;;;;;;;;;;9.16;64.21;95728.22;108361;1276;124234;-90
2024/04/19 12:03:59;;;;;;;;;;;;;;;9.16;65.42;95724.71;108486;1283;22557;-90
2024/04/19 12:06:26;;;;;;;;;;;;;;;9.18;65.92;95718.58;108409;1282;124373;-90
2024/04/19 12:08:54;;;;;;;;;;;;;;;9.25;67.34;95713.63;108533;1275;22507;-91
2024/04/19 12:11:20;;;;;;;;;;;;;;;9.34;66.34;95716.02;108456;1283;22509;-91
2024/04/19 12:13:48;;;;;;;;;;;;;;;9.36;63.81;95714.87;108466;1265;124339;-90
2024/04/19 12:16:15;;;;;;;;;;;;;;;9.32;65.18;95716.53;108500;1282;22547;-91
2024/04/19 12:18:41;;;;;;;;;;;;;;;9.35;66.07;95701.78;108363;1274;124324;-91
2024/04/19 12:21:07;;;;;;;;;;;;;;;9.38;65.16;95697.88;108493;1283;22506;-91
2024/04/19 12:23:34;;;;;;;;;;;;;;;9.36;63.12;95704.30;108433;1277;22523;-90
2024/04/19 12:26:00;;;;;;;;;;;;;;;9.28;63.04;95695.56;108401;1275;124124;-90
2024/04/19 12:28:28;;;;;;;;;;;;;;;9.21;63.55;95690.08;108499;1275;25922;-90
2024/04/19 12:30:54;;;;;;;;;;;;;;;9.20;65.02;95689.13;108355;1283;124082;-90
2024/04/19 12:33:21;;;;;;;;;;;;;;;9.23;64.02;95689.54;108472;1284;22522;-91
2024/04/19 12:35:47;;;;;;;;;;;;;;;9.25;65.43;95682.13;108397;1280;124295;-90
2024/04/19 12:38:14;;;;;;;;;;;;;;;9.35;65.15;95682.55;108506;1283;22533;-90
2024/04/19 12:40:40;;;;;;;;;;;;;;;9.51;64.69;95672.51;108534;1284;22545;-90
2024/04/19 12:43:07;;;;;;;;;;;;;;;9.57;63.42;95668.06;108349;1277;124304;-90